createdAt,value
2018-05-11T00:02:25.109Z,43.20
2018-05-11T00:04:53.344Z,42.80
2018-05-11T00:07:21.600Z,43.00
2018-05-11T00:09:49.850Z,43.10
2018-05-11T00:12:18.117Z,43.30
2018-05-11T00:14:46.340Z,43.40
2018-05-11T00:17:15.366Z,43.40
2018-05-11T00:19:44.383Z,44.00
2018-05-11T00:22:12.630Z,43.80
2018-05-11T00:24:41.625Z,44.20
2018-05-11T00:27:10.633Z,44.30
2018-05-11T00:29:38.909Z,43.90
2018-05-11T00:32:07.905Z,44.00
2018-05-11T00:34:36.254Z,44.00
2018-05-11T00:37:04.476Z,44.50
2018-05-11T00:39:32.817Z,44.40
2018-05-11T00:42:01.030Z,44.60
2018-05-11T00:44:29.313Z,44.80
2018-05-11T00:46:58.304Z,45.40
2018-05-11T00:49:26.574Z,45.50
2018-05-11T00:51:54.853Z,45.50
2018-05-11T00:54:23.119Z,45.50
2018-05-11T00:56:51.354Z,45.60
2018-05-11T00:59:19.685Z,45.70
2018-05-11T01:01:47.954Z,45.50
2018-05-11T01:04:16.186Z,45.50
2018-05-11T01:06:44.420Z,45.30
2018-05-11T01:09:12.652Z,45.10
2018-05-11T01:11:41.004Z,45.30
2018-05-11T01:14:10.004Z,45.10
2018-05-11T01:16:38.996Z,45.00
2018-05-11T01:19:08.014Z,45.00
2018-05-11T01:21:36.263Z,45.10
2018-05-11T01:24:05.272Z,45.10
2018-05-11T01:26:34.302Z,45.30
2018-05-11T01:29:02.535Z,45.40
2018-05-11T01:31:30.774Z,45.40
2018-05-11T01:33:59.081Z,45.70
2018-05-11T01:36:27.324Z,45.70
2018-05-11T01:38:55.584Z,45.70
2018-05-11T01:41:24.588Z,45.60
2018-05-11T01:43:52.857Z,45.80
2018-05-11T01:46:21.097Z,45.60
2018-05-11T01:48:49.371Z,45.60
2018-05-11T01:51:17.667Z,46.00
2018-05-11T01:53:45.876Z,46.10
2018-05-11T01:56:14.864Z,45.90
2018-05-11T01:58:43.896Z,46.00
2018-05-11T02:01:12.149Z,46.00
2018-05-11T02:03:41.156Z,46.20
2018-05-11T02:06:09.413Z,46.20
2018-05-11T02:08:38.435Z,46.60
2018-05-11T02:11:06.709Z,46.10
2018-05-11T02:13:34.958Z,46.10
2018-05-11T02:16:03.201Z,46.20
2018-05-11T02:18:31.459Z,46.10
2018-05-11T02:20:59.741Z,46.30
2018-05-11T02:23:27.990Z,46.40
2018-05-11T02:25:57.109Z,46.60
2018-05-11T02:28:25.281Z,46.50
2018-05-11T02:30:54.286Z,46.70
2018-05-11T02:33:23.312Z,46.80
2018-05-11T02:35:51.607Z,46.80
2018-05-11T02:38:19.872Z,46.60
2018-05-11T02:40:49.858Z,46.50
2018-05-11T02:43:18.181Z,46.60
2018-05-11T02:45:46.422Z,46.60
2018-05-11T02:48:14.669Z,46.30
2018-05-11T02:50:42.951Z,46.10
2018-05-11T02:53:11.172Z,45.90
2018-05-11T02:55:39.409Z,46.40
2018-05-11T02:58:08.053Z,46.40
2018-05-11T03:00:36.285Z,46.60
2018-05-11T03:03:04.520Z,46.70
2018-05-11T03:05:32.797Z,46.90
2018-05-11T03:08:01.369Z,46.80
2018-05-11T03:10:29.664Z,46.80
2018-05-11T03:12:57.845Z,47.10
2018-05-11T03:15:26.095Z,46.90
2018-05-11T03:17:55.087Z,47.10
2018-05-11T03:20:24.160Z,47.00
2018-05-11T03:22:52.440Z,46.80
2018-05-11T03:25:20.702Z,46.90
2018-05-11T03:27:49.004Z,46.90
2018-05-11T03:30:17.213Z,46.70
2018-05-11T03:32:45.710Z,46.90
2018-05-11T03:35:13.937Z,47.10
2018-05-11T03:37:42.175Z,47.50
2018-05-11T03:40:10.421Z,47.50
2018-05-11T03:42:39.426Z,48.40
2018-05-11T03:45:08.436Z,47.80
2018-05-11T03:47:36.697Z,47.80
2018-05-11T03:50:05.723Z,48.00
2018-05-11T03:52:34.068Z,48.20
2018-05-11T03:55:02.291Z,48.10
2018-05-11T03:57:30.623Z,48.10
2018-05-11T03:59:58.998Z,48.00
2018-05-11T04:02:38.919Z,48.10
2018-05-11T04:05:19.171Z,48.10
2018-05-11T04:07:59.460Z,48.20
2018-05-11T04:10:27.732Z,48.20
2018-05-11T04:12:56.021Z,48.10
2018-05-11T04:15:24.232Z,48.20
2018-05-11T04:17:53.241Z,48.30
2018-05-11T04:20:22.234Z,48.40
2018-05-11T04:22:51.250Z,48.20
2018-05-11T04:25:19.576Z,48.30
2018-05-11T04:27:48.683Z,48.20
2018-05-11T04:30:17.689Z,48.60
2018-05-11T04:32:46.715Z,48.60
2018-05-11T04:35:14.978Z,48.60
2018-05-11T04:37:43.256Z,48.60
2018-05-11T04:40:12.277Z,48.90
2018-05-11T04:42:40.563Z,48.70
2018-05-11T04:45:08.835Z,48.80
2018-05-11T04:47:37.110Z,48.90
2018-05-11T04:50:05.364Z,48.70
2018-05-11T04:52:34.382Z,49.00
2018-05-11T04:55:03.001Z,49.10
2018-05-11T04:57:31.244Z,49.10
2018-05-11T05:00:00.259Z,49.20
2018-05-11T05:02:28.506Z,49.00
2018-05-11T05:04:56.875Z,49.00
2018-05-11T05:07:25.104Z,49.10
2018-05-11T05:09:53.327Z,49.30
2018-05-11T05:12:21.678Z,49.60
2018-05-11T05:14:49.841Z,49.60
2018-05-11T05:17:18.458Z,49.20
2018-05-11T05:19:46.726Z,49.30
2018-05-11T05:22:14.955Z,49.40
2018-05-11T05:24:43.996Z,49.20
2018-05-11T05:27:12.233Z,49.20
2018-05-11T05:29:40.517Z,49.30
2018-05-11T05:32:09.060Z,50.10
2018-05-11T05:34:37.286Z,49.40
2018-05-11T05:37:06.279Z,49.30
2018-05-11T05:39:35.311Z,49.70
2018-05-11T05:42:03.605Z,49.80
2018-05-11T05:44:31.857Z,49.80
2018-05-11T05:47:00.882Z,50.00
2018-05-11T05:49:29.528Z,49.80
2018-05-11T05:51:58.596Z,50.10
2018-05-11T05:54:26.800Z,49.80
2018-05-11T05:56:55.071Z,49.60
2018-05-11T05:59:23.350Z,49.40
2018-05-11T06:01:51.601Z,49.10
2018-05-11T06:04:19.858Z,49.30
2018-05-11T06:06:48.151Z,49.10
2018-05-11T06:09:17.147Z,48.60
2018-05-11T06:11:45.419Z,48.90
2018-05-11T06:14:13.697Z,48.40
2018-05-11T06:16:41.944Z,48.40
2018-05-11T06:19:11.043Z,49.10
2018-05-11T06:21:40.095Z,50.70
2018-05-11T06:24:08.385Z,50.80
2018-05-11T06:26:36.657Z,51.20
2018-05-11T06:29:04.947Z,51.00
2018-05-11T06:31:33.227Z,50.80
2018-05-11T06:34:01.521Z,50.10
2018-05-11T06:36:29.791Z,49.70
2018-05-11T06:38:58.073Z,48.90
2018-05-11T06:41:26.376Z,48.50
2018-05-11T06:43:54.599Z,48.40
2018-05-11T06:46:22.873Z,48.60
2018-05-11T06:48:51.176Z,48.90
2018-05-11T06:51:19.820Z,48.90
2018-05-11T06:53:52.382Z,48.70
2018-05-11T06:56:20.635Z,48.70
2018-05-11T06:58:48.961Z,48.80
2018-05-11T07:01:17.984Z,49.00
2018-05-11T07:03:47.016Z,48.50
2018-05-11T07:06:17.574Z,48.40
2018-05-11T07:08:45.884Z,48.20
2018-05-11T07:11:14.950Z,47.40
2018-05-11T07:13:43.201Z,47.50
2018-05-11T07:16:11.515Z,47.00
2018-05-11T07:18:39.946Z,47.30
2018-05-11T07:21:08.199Z,46.70
2018-05-11T07:23:37.242Z,46.60
2018-05-11T07:26:05.480Z,46.70
2018-05-11T07:28:33.762Z,46.50
2018-05-11T07:31:02.854Z,46.20
2018-05-11T07:33:31.908Z,46.30
2018-05-11T07:36:00.222Z,46.20
2018-05-11T07:38:28.476Z,45.90
2018-05-11T07:40:56.777Z,46.00
2018-05-11T07:43:25.169Z,45.60
2018-05-11T07:45:53.281Z,45.10
2018-05-11T07:48:21.556Z,44.80
2018-05-11T07:50:49.840Z,44.70
2018-05-11T07:53:18.122Z,45.00
2018-05-11T07:55:47.409Z,44.50
2018-05-11T07:58:16.412Z,44.70
2018-05-11T08:00:44.732Z,44.80
2018-05-11T08:03:12.956Z,45.20
2018-05-11T08:05:42.030Z,44.60
2018-05-11T08:08:10.294Z,44.80
2018-05-11T08:10:38.533Z,44.60
2018-05-11T08:13:06.812Z,44.80
2018-05-11T08:15:36.017Z,44.30
2018-05-11T08:18:05.033Z,44.40
2018-05-11T08:20:33.330Z,44.10
2018-05-11T08:23:02.357Z,43.90
2018-05-11T08:25:30.640Z,43.70
2018-05-11T08:28:00.413Z,43.90
2018-05-11T08:30:28.652Z,43.60
2018-05-11T08:32:57.678Z,44.00
2018-05-11T08:35:26.147Z,44.00
2018-05-11T08:37:55.160Z,44.30
2018-05-11T08:40:23.408Z,44.50
2018-05-11T08:42:52.465Z,44.40
2018-05-11T08:45:20.801Z,43.70
2018-05-11T08:47:48.957Z,43.40
2018-05-11T08:50:17.240Z,43.00
2018-05-11T08:52:46.258Z,43.10
2018-05-11T08:55:15.273Z,42.90
2018-05-11T08:57:43.551Z,42.90
2018-05-11T09:00:12.559Z,43.20
2018-05-11T09:02:40.858Z,43.50
2018-05-11T09:05:09.133Z,43.80
2018-05-11T09:07:37.597Z,43.40
2018-05-11T09:10:05.898Z,43.30
2018-05-11T09:12:34.177Z,43.50
2018-05-11T09:15:02.472Z,43.20
2018-05-11T09:17:30.751Z,42.80
2018-05-11T09:19:59.876Z,42.30
2018-05-11T09:22:28.136Z,42.10
2018-05-11T09:24:57.411Z,41.10
2018-05-11T09:27:25.718Z,41.50
2018-05-11T09:29:54.013Z,41.60
2018-05-11T09:32:22.313Z,41.30
2018-05-11T09:34:50.562Z,41.70
2018-05-11T09:37:18.872Z,41.80
2018-05-11T09:39:47.149Z,41.70
2018-05-11T09:42:15.542Z,41.20
2018-05-11T09:44:43.798Z,40.40
2018-05-11T09:47:12.031Z,40.70
2018-05-11T09:49:41.100Z,40.60
2018-05-11T09:52:09.319Z,40.50
2018-05-11T09:54:37.639Z,40.40
2018-05-11T09:57:05.934Z,40.40
2018-05-11T09:59:34.238Z,40.30
2018-05-11T10:02:03.274Z,40.30
2018-05-11T10:04:31.603Z,40.40
2018-05-11T10:06:59.868Z,40.30
2018-05-11T10:09:28.167Z,40.10
2018-05-11T10:11:56.630Z,40.00
2018-05-11T10:14:24.875Z,40.10
2018-05-11T10:16:53.137Z,40.50
2018-05-11T10:19:22.180Z,40.00
2018-05-11T10:21:50.448Z,40.20
2018-05-11T10:24:18.714Z,40.20
2018-05-11T10:26:46.964Z,39.30
2018-05-11T10:29:15.213Z,39.40
2018-05-11T10:31:43.464Z,39.40
2018-05-11T10:34:11.743Z,38.50
2018-05-11T10:36:40.003Z,38.20
2018-05-11T10:39:08.260Z,38.20
2018-05-11T10:41:36.509Z,38.10
2018-05-11T10:44:04.824Z,38.30
2018-05-11T10:46:34.049Z,38.10
2018-05-11T10:49:03.089Z,38.30
2018-05-11T10:51:31.340Z,38.20
2018-05-11T10:53:59.576Z,38.20
2018-05-11T10:56:27.841Z,38.10
2018-05-11T10:58:56.126Z,38.10
2018-05-11T11:01:24.373Z,38.30
2018-05-11T11:03:52.617Z,38.40
2018-05-11T11:06:20.929Z,37.30
2018-05-11T11:08:49.186Z,37.70
2018-05-11T11:11:17.463Z,37.20
2018-05-11T11:13:46.456Z,37.30
2018-05-11T11:16:15.473Z,37.30
2018-05-11T11:18:43.727Z,37.30
2018-05-11T11:21:11.988Z,36.80
2018-05-11T11:23:40.233Z,36.70
2018-05-11T11:26:08.524Z,37.10
2018-05-11T11:28:36.752Z,37.60
2018-05-11T11:31:05.797Z,37.70
2018-05-11T11:33:34.044Z,37.60
2018-05-11T11:36:02.313Z,37.70
2018-05-11T11:38:31.321Z,37.60
2018-05-11T11:41:00.331Z,37.60
2018-05-11T11:43:28.598Z,37.60
2018-05-11T11:45:57.609Z,36.60
2018-05-11T11:48:25.866Z,36.60
2018-05-11T13:12:53.444Z,35.30
2018-05-11T13:15:21.673Z,34.90
2018-05-11T13:17:49.935Z,35.10
2018-05-11T13:20:18.952Z,34.90
2018-05-11T13:22:47.201Z,34.40
2018-05-11T13:25:15.468Z,34.40
2018-05-11T13:27:43.722Z,34.00
2018-05-11T13:30:11.959Z,34.00
2018-05-11T13:32:40.240Z,34.10
2018-05-11T13:35:09.272Z,33.70
2018-05-11T13:37:37.516Z,33.70
2018-05-11T13:40:05.768Z,33.90
2018-05-11T13:42:34.044Z,33.60
2018-05-11T13:45:02.298Z,33.50
2018-05-11T13:47:31.349Z,34.40
2018-05-11T13:49:59.568Z,34.30
2018-05-11T13:52:27.844Z,33.20
2018-05-11T13:54:56.872Z,32.50
2018-05-11T13:57:25.119Z,32.40
2018-05-11T13:59:54.191Z,33.10
2018-05-11T14:02:22.425Z,33.10
2018-05-11T14:04:50.686Z,33.00
2018-05-11T14:07:18.949Z,33.50
2018-05-11T14:09:47.987Z,32.80
2018-05-11T14:12:16.844Z,32.70
2018-05-11T14:14:45.871Z,32.00
2018-05-11T14:17:14.309Z,32.00
2018-05-11T14:19:42.524Z,32.10
2018-05-11T14:22:11.651Z,32.10
2018-05-11T14:24:41.113Z,32.20
2018-05-11T14:27:10.485Z,32.10
2018-05-11T14:29:39.478Z,31.90
2018-05-11T14:32:08.977Z,31.60
2018-05-11T14:34:42.019Z,31.60
2018-05-11T14:37:11.154Z,31.70
2018-05-11T14:39:40.433Z,31.60
2018-05-11T14:42:09.652Z,31.40
2018-05-11T14:44:40.804Z,31.40
2018-05-11T14:47:09.068Z,30.50
2018-05-11T14:49:38.277Z,30.80
2018-05-11T14:52:06.498Z,31.20
2018-05-11T14:54:34.774Z,31.30
2018-05-11T14:57:03.785Z,31.00
2018-05-11T14:59:33.053Z,31.00
2018-05-11T15:02:02.061Z,31.30
2018-05-11T15:04:30.436Z,31.30
2018-05-11T15:07:01.310Z,31.80
2018-05-11T15:09:31.205Z,31.80
2018-05-11T15:12:02.043Z,31.80
2018-05-11T15:14:31.126Z,31.90
2018-05-11T15:17:00.011Z,31.90
2018-05-11T15:19:35.690Z,32.20
2018-05-11T15:22:04.994Z,31.70
2018-05-11T15:24:35.319Z,31.60
2018-05-11T15:27:04.722Z,32.00
2018-05-11T15:29:33.804Z,31.80
2018-05-11T15:32:03.981Z,31.70
2018-05-11T15:34:32.331Z,32.00
2018-05-11T15:37:00.606Z,32.60
2018-05-11T15:39:29.078Z,32.90
2018-05-11T15:41:57.333Z,32.90
2018-05-11T15:44:25.667Z,33.10
2018-05-11T15:46:55.724Z,33.00
2018-05-11T15:49:24.034Z,33.00
2018-05-11T15:51:52.309Z,34.60
2018-05-11T15:54:20.600Z,36.20
2018-05-11T15:56:48.894Z,36.80
2018-05-11T15:59:18.089Z,35.50
2018-05-11T16:01:48.111Z,34.30
2018-05-11T16:04:16.384Z,34.30
2018-05-11T16:06:44.741Z,34.30
2018-05-11T16:09:13.013Z,36.80
2018-05-11T16:11:41.321Z,35.40
2018-05-11T16:14:09.622Z,35.60
2018-05-11T16:16:42.545Z,34.70
2018-05-11T16:19:11.804Z,34.30
2018-05-11T16:21:40.975Z,34.50
2018-05-11T16:24:10.169Z,34.50
2018-05-11T16:26:38.481Z,34.20
2018-05-11T16:29:07.668Z,34.10
2018-05-11T16:31:35.975Z,33.30
2018-05-11T16:34:04.272Z,33.00
2018-05-11T16:36:32.628Z,33.50
2018-05-11T16:39:04.973Z,33.90
2018-05-11T16:41:36.911Z,33.50
2018-05-11T16:44:07.929Z,32.90
2018-05-11T16:46:37.132Z,32.70
2018-05-11T16:49:06.175Z,32.70
2018-05-11T16:51:34.472Z,32.70
2018-05-11T16:54:03.675Z,32.80
2018-05-11T16:56:33.045Z,33.40
2018-05-11T16:59:05.886Z,32.60
2018-05-11T17:01:34.182Z,32.50
2018-05-11T17:04:06.510Z,32.10
2018-05-11T17:06:35.812Z,32.00
2018-05-11T17:09:04.108Z,31.70
2018-05-11T17:11:32.433Z,31.60
2018-05-11T17:14:00.693Z,32.00
2018-05-11T17:16:29.969Z,32.20
2018-05-11T17:18:58.191Z,32.30
2018-05-11T17:21:26.468Z,32.40
2018-05-11T17:23:54.734Z,32.50
2018-05-11T17:26:23.002Z,32.40
2018-05-11T17:28:51.288Z,32.40
2018-05-11T17:31:19.736Z,32.20
2018-05-11T17:33:48.793Z,32.30
2018-05-11T17:36:17.018Z,32.20
2018-05-11T17:38:45.273Z,32.20
2018-05-11T17:41:13.511Z,32.20
2018-05-11T17:43:41.807Z,32.40
2018-05-11T17:46:10.061Z,32.40
2018-05-11T17:48:38.394Z,32.40
2018-05-11T17:51:06.624Z,32.50
2018-05-11T17:53:34.912Z,32.40
2018-05-11T17:56:03.230Z,32.50
2018-05-11T17:58:31.485Z,32.80
2018-05-11T18:00:59.713Z,33.40
2018-05-11T18:03:27.977Z,32.70
2018-05-11T18:05:56.232Z,32.70
2018-05-11T18:08:24.479Z,32.90
2018-05-11T18:10:52.752Z,33.00
2018-05-11T18:13:21.782Z,32.70
2018-05-11T18:15:50.017Z,32.70
2018-05-11T18:18:18.283Z,32.60
2018-05-11T18:20:46.565Z,32.50
2018-05-11T18:23:14.777Z,32.60
2018-05-11T18:25:43.789Z,33.30
2018-05-11T18:28:12.059Z,32.60
2018-05-11T18:30:40.305Z,32.50
2018-05-11T18:33:08.586Z,32.50
2018-05-11T18:35:36.832Z,32.60
2018-05-11T18:38:06.059Z,32.80
2018-05-11T18:40:34.289Z,32.90
2018-05-11T18:43:02.532Z,33.00
2018-05-11T18:45:30.797Z,32.90
2018-05-11T18:47:59.074Z,32.90
2018-05-11T18:50:27.347Z,32.80
2018-05-11T18:52:55.624Z,32.80
2018-05-11T18:55:24.616Z,32.70
2018-05-11T18:57:52.853Z,32.70
2018-05-11T19:00:21.848Z,32.50
2018-05-11T19:02:50.904Z,32.50
2018-05-11T19:05:19.183Z,32.50
2018-05-11T19:07:47.437Z,32.60
2018-05-11T19:10:15.744Z,32.50
2018-05-11T19:12:44.042Z,32.50
2018-05-11T19:15:12.294Z,32.50
2018-05-11T19:17:40.564Z,32.60
2018-05-11T19:20:09.678Z,32.50
2018-05-11T19:22:38.959Z,32.40
2018-05-11T19:25:07.234Z,32.40
2018-05-11T19:27:36.212Z,32.20
2018-05-11T19:30:05.232Z,32.20
2018-05-11T19:32:33.501Z,32.20
2018-05-11T19:35:01.783Z,32.20
2018-05-11T19:37:30.812Z,33.00
2018-05-11T19:39:59.052Z,32.30
2018-05-11T19:42:28.184Z,32.30
2018-05-11T19:44:56.365Z,32.30
2018-05-11T19:47:24.637Z,32.20
2018-05-11T19:49:52.878Z,32.20
2018-05-11T19:52:22.088Z,32.20
2018-05-11T19:54:50.338Z,32.30
2018-05-11T19:57:19.686Z,32.40
2018-05-11T19:59:47.967Z,32.40
2018-05-11T20:02:16.987Z,32.70
2018-05-11T20:04:45.331Z,32.70
2018-05-11T20:07:13.520Z,32.70
2018-05-11T20:09:42.567Z,32.90
2018-05-11T20:12:10.836Z,32.80
2018-05-11T20:14:39.109Z,32.90
2018-05-11T20:17:07.375Z,33.00
2018-05-11T20:19:35.668Z,33.10
2018-05-11T20:22:03.931Z,33.30
2018-05-11T20:24:32.920Z,34.00
2018-05-11T20:27:01.935Z,34.00
2018-05-11T20:29:30.216Z,34.00
2018-05-11T20:31:58.505Z,34.00
2018-05-11T20:34:26.756Z,33.70
2018-05-11T20:36:55.033Z,33.90
2018-05-11T20:39:24.088Z,34.10
2018-05-11T20:41:52.354Z,34.10
2018-05-11T20:44:20.581Z,34.50
2018-05-11T20:46:49.801Z,34.80
2018-05-11T20:49:19.779Z,34.70
2018-05-11T20:51:48.873Z,34.80
2018-05-11T20:54:17.145Z,34.70
2018-05-11T20:56:45.408Z,34.80
2018-05-11T20:59:13.644Z,34.70
2018-05-11T21:01:42.703Z,35.00
2018-05-11T21:04:11.042Z,35.00
2018-05-11T21:06:39.353Z,34.90
2018-05-11T21:09:07.658Z,34.90
2018-05-11T21:11:36.040Z,35.00
2018-05-11T21:14:04.349Z,35.00
2018-05-11T21:16:33.437Z,35.30
2018-05-11T21:19:01.727Z,35.10
2018-05-11T21:21:30.021Z,35.40
2018-05-11T21:23:58.244Z,35.40
2018-05-11T21:26:26.521Z,35.50
2018-05-11T21:28:54.843Z,35.50
2018-05-11T21:31:23.132Z,35.60
2018-05-11T21:33:52.170Z,35.70
2018-05-11T21:36:20.510Z,35.60
2018-05-11T21:38:48.739Z,35.60
2018-05-11T21:41:17.017Z,35.50
2018-05-11T21:43:45.260Z,35.40
2018-05-11T21:46:14.251Z,35.60
2018-05-11T21:48:43.294Z,35.60
2018-05-11T21:51:11.555Z,35.60
2018-05-11T21:53:39.864Z,35.60
2018-05-11T21:56:08.125Z,35.30
2018-05-11T21:58:36.340Z,35.60
2018-05-11T22:01:04.631Z,35.70
2018-05-11T22:03:32.877Z,35.90
2018-05-11T22:06:01.139Z,36.20
2018-05-11T22:08:29.339Z,36.20
2018-05-11T22:10:57.602Z,36.50
2018-05-11T22:13:26.681Z,36.50
2018-05-11T22:15:54.908Z,36.50
2018-05-11T22:18:23.171Z,36.60
2018-05-11T22:20:51.449Z,36.60
2018-05-11T22:23:19.728Z,36.80
2018-05-11T22:25:48.042Z,36.90
2018-05-11T22:28:16.315Z,36.80
2018-05-11T22:30:44.532Z,37.00
2018-05-11T22:33:14.568Z,37.10
2018-05-11T22:35:42.816Z,37.00
2018-05-11T22:38:11.068Z,37.20
2018-05-11T22:40:39.306Z,36.90
2018-05-11T22:43:08.325Z,37.30
2018-05-11T22:45:36.720Z,37.20
2018-05-11T22:48:04.984Z,37.50
2018-05-11T22:50:33.247Z,37.50
2018-05-11T22:53:02.264Z,38.20
2018-05-11T22:55:30.500Z,38.20
2018-05-11T22:57:58.783Z,37.50
2018-05-11T23:00:33.813Z,37.60
2018-05-11T23:03:01.812Z,37.20
2018-05-11T23:05:30.888Z,37.00
2018-05-11T23:07:59.125Z,37.00
2018-05-11T23:10:27.462Z,37.10
2018-05-11T23:12:56.390Z,37.60
2018-05-11T23:15:25.686Z,38.20
2018-05-11T23:17:53.925Z,38.10
2018-05-11T23:20:22.163Z,37.80
2018-05-11T23:22:50.420Z,37.80
2018-05-11T23:25:18.678Z,38.20
2018-05-11T23:27:47.752Z,38.10
2018-05-11T23:30:16.716Z,38.00
2018-05-11T23:32:44.945Z,38.10
2018-05-11T23:35:13.270Z,37.90
2018-05-11T23:37:41.442Z,38.10
2018-05-11T23:40:09.707Z,38.00
2018-05-11T23:42:38.724Z,38.00
2018-05-11T23:45:07.017Z,38.00
2018-05-11T23:47:35.251Z,38.20
2018-05-11T23:50:04.266Z,38.80
2018-05-11T23:52:34.257Z,38.80
2018-05-11T23:55:02.527Z,38.80
2018-05-11T23:57:30.751Z,39.10
2018-05-11T23:59:59.017Z,39.10
